sensor_id;sensor_type;location;lat;lon;timestamp;temperature;humidity
3035;DHT22;1527;48.836;9.172;2022-09-09T00:02:08;18.20;99.90
3035;DHT22;1527;48.836;9.172;2022-09-09T00:04:52;18.30;99.90
3035;DHT22;1527;48.836;9.172;2022-09-09T00:07:40;18.30;99.90
3035;DHT22;1527;48.836;9.172;2022-09-09T00:10:17;18.30;99.90
3035;DHT22;1527;48.836;9.172;2022-09-09T00:12:57;18.30;99.90
3035;DHT22;1527;48.836;9.172;2022-09-09T00:15:36;18.30;99.90
3035;DHT22;1527;48.836;9.172;2022-09-09T00:18:14;18.30;99.90
3035;DHT22;1527;48.836;9.172;2022-09-09T00:20:52;18.20;99.90
3035;DHT22;1527;48.836;9.172;2022-09-09T00:23:28;18.20;99.90
3035;DHT22;1527;48.836;9.172;2022-09-09T00:26:04;18.30;99.90
3035;DHT22;1527;48.836;9.172;2022-09-09T00:28:39;18.40;99.90
3035;DHT22;1527;48.836;9.172;2022-09-09T00:31:24;18.30;99.90
3035;DHT22;1527;48.836;9.172;2022-09-09T00:34:00;18.40;99.90
3035;DHT22;1527;48.836;9.172;2022-09-09T00:36:32;18.40;99.90
3035;DHT22;1527;48.836;9.172;2022-09-09T00:39:04;18.40;99.90
3035;DHT22;1527;48.836;9.172;2022-09-09T00:41:44;18.40;99.90
3035;DHT22;1527;48.836;9.172;2022-09-09T00:44:30;18.40;99.90
3035;DHT22;1527;48.836;9.172;2022-09-09T00:47:23;18.50;99.90
3035;DHT22;1527;48.836;9.172;2022-09-09T00:50:03;18.60;99.90
3035;DHT22;1527;48.836;9.172;2022-09-09T00:52:42;18.70;99.90
3035;DHT22;1527;48.836;9.172;2022-09-09T00:55:23;18.80;99.90
3035;DHT22;1527;48.836;9.172;2022-09-09T00:57:57;18.70;99.90
3035;DHT22;1527;48.836;9.172;2022-09-09T01:00:27;18.80;99.90
3035;DHT22;1527;48.836;9.172;2022-09-09T01:03:10;18.80;99.90
3035;DHT22;1527;48.836;9.172;2022-09-09T01:05:54;18.90;99.90
3035;DHT22;1527;48.836;9.172;2022-09-09T01:08:42;18.90;99.90
3035;DHT22;1527;48.836;9.172;2022-09-09T01:11:24;18.90;99.90
3035;DHT22;1527;48.836;9.172;2022-09-09T01:14:03;18.80;99.90
3035;DHT22;1527;48.836;9.172;2022-09-09T01:16:40;18.90;99.90
3035;DHT22;1527;48.836;9.172;2022-09-09T01:19:17;18.90;99.90
3035;DHT22;1527;48.836;9.172;2022-09-09T01:21:57;19.00;99.90
3035;DHT22;1527;48.836;9.172;2022-09-09T01:24:38;19.00;99.90
3035;DHT22;1527;48.836;9.172;2022-09-09T01:27:19;19.00;99.90
3035;DHT22;1527;48.836;9.172;2022-09-09T01:29:49;19.10;99.90
3035;DHT22;1527;48.836;9.172;2022-09-09T01:32:39;19.10;99.90
3035;DHT22;1527;48.836;9.172;2022-09-09T01:35:16;19.10;99.90
3035;DHT22;1527;48.836;9.172;2022-09-09T01:38:00;19.10;99.90
3035;DHT22;1527;48.836;9.172;2022-09-09T01:40:29;19.20;99.90
3035;DHT22;1527;48.836;9.172;2022-09-09T01:43:00;19.20;99.90
3035;DHT22;1527;48.836;9.172;2022-09-09T01:45:30;19.20;99.90
3035;DHT22;1527;48.836;9.172;2022-09-09T01:48:00;19.10;99.90
3035;DHT22;1527;48.836;9.172;2022-09-09T01:50:52;19.10;99.90
3035;DHT22;1527;48.836;9.172;2022-09-09T01:53:21;19.20;99.90
3035;DHT22;1527;48.836;9.172;2022-09-09T01:56:02;19.30;99.90
3035;DHT22;1527;48.836;9.172;2022-09-09T01:58:52;19.30;99.90
3035;DHT22;1527;48.836;9.172;2022-09-09T02:01:35;19.30;99.90
3035;DHT22;1527;48.836;9.172;2022-09-09T02:04:22;19.30;99.90
3035;DHT22;1527;48.836;9.172;2022-09-09T02:06:57;19.30;99.90
3035;DHT22;1527;48.836;9.172;2022-09-09T02:09:30;19.30;99.90
3035;DHT22;1527;48.836;9.172;2022-09-09T02:12:04;19.30;99.90
3035;DHT22;1527;48.836;9.172;2022-09-09T02:14:48;19.30;99.90
3035;DHT22;1527;48.836;9.172;2022-09-09T02:17:25;19.30;99.90
3035;DHT22;1527;48.836;9.172;2022-09-09T02:20:06;19.10;99.90
3035;DHT22;1527;48.836;9.172;2022-09-09T02:22:56;19.00;99.90
3035;DHT22;1527;48.836;9.172;2022-09-09T02:25:28;19.10;99.90
3035;DHT22;1527;48.836;9.172;2022-09-09T02:28:07;19.10;99.90
3035;DHT22;1527;48.836;9.172;2022-09-09T02:30:40;19.10;99.90
3035;DHT22;1527;48.836;9.172;2022-09-09T02:33:12;19.10;99.90
3035;DHT22;1527;48.836;9.172;2022-09-09T02:35:50;18.90;99.90
3035;DHT22;1527;48.836;9.172;2022-09-09T02:38:26;18.90;99.90
3035;DHT22;1527;48.836;9.172;2022-09-09T02:41:02;18.90;99.90
3035;DHT22;1527;48.836;9.172;2022-09-09T02:43:32;18.90;99.90
3035;DHT22;1527;48.836;9.172;2022-09-09T02:46:20;18.90;99.90
3035;DHT22;1527;48.836;9.172;2022-09-09T02:48:59;18.90;99.90
3035;DHT22;1527;48.836;9.172;2022-09-09T02:51:40;18.90;99.90
3035;DHT22;1527;48.836;9.172;2022-09-09T02:54:21;18.90;99.90
3035;DHT22;1527;48.836;9.172;2022-09-09T02:56:58;18.90;99.90
3035;DHT22;1527;48.836;9.172;2022-09-09T02:59:35;18.90;99.90
3035;DHT22;1527;48.836;9.172;2022-09-09T03:02:06;18.80;99.90
3035;DHT22;1527;48.836;9.172;2022-09-09T03:04:35;18.80;99.90
3035;DHT22;1527;48.836;9.172;2022-09-09T03:07:05;18.80;99.90
3035;DHT22;1527;48.836;9.172;2022-09-09T03:09:34;18.80;99.90
3035;DHT22;1527;48.836;9.172;2022-09-09T03:12:03;18.70;99.90
3035;DHT22;1527;48.836;9.172;2022-09-09T03:14:34;18.70;99.90
3035;DHT22;1527;48.836;9.172;2022-09-09T03:17:05;18.60;99.90
3035;DHT22;1527;48.836;9.172;2022-09-09T03:19:39;18.60;99.90
3035;DHT22;1527;48.836;9.172;2022-09-09T03:22:10;18.50;99.90
3035;DHT22;1527;48.836;9.172;2022-09-09T03:24:42;18.50;99.90
3035;DHT22;1527;48.836;9.172;2022-09-09T03:27:11;18.40;99.90
3035;DHT22;1527;48.836;9.172;2022-09-09T03:29:41;18.40;99.90
3035;DHT22;1527;48.836;9.172;2022-09-09T03:32:16;18.30;99.90
3035;DHT22;1527;48.836;9.172;2022-09-09T03:34:45;18.30;99.90
3035;DHT22;1527;48.836;9.172;2022-09-09T03:37:15;18.20;99.90
3035;DHT22;1527;48.836;9.172;2022-09-09T03:39:45;18.20;99.90
3035;DHT22;1527;48.836;9.172;2022-09-09T03:42:16;18.20;99.90
3035;DHT22;1527;48.836;9.172;2022-09-09T03:44:50;18.20;99.90
3035;DHT22;1527;48.836;9.172;2022-09-09T03:47:23;18.30;99.90
3035;DHT22;1527;48.836;9.172;2022-09-09T03:49:58;18.30;99.90
3035;DHT22;1527;48.836;9.172;2022-09-09T03:52:27;18.20;99.90
3035;DHT22;1527;48.836;9.172;2022-09-09T03:54:57;18.20;99.90
3035;DHT22;1527;48.836;9.172;2022-09-09T03:57:26;18.20;99.90
3035;DHT22;1527;48.836;9.172;2022-09-09T03:59:57;18.20;99.90
3035;DHT22;1527;48.836;9.172;2022-09-09T04:02:33;18.10;99.90
3035;DHT22;1527;48.836;9.172;2022-09-09T04:05:03;18.10;99.90
3035;DHT22;1527;48.836;9.172;2022-09-09T04:07:34;18.00;99.90
3035;DHT22;1527;48.836;9.172;2022-09-09T04:10:04;17.90;99.90
3035;DHT22;1527;48.836;9.172;2022-09-09T04:12:35;17.90;99.90
3035;DHT22;1527;48.836;9.172;2022-09-09T04:15:05;18.50;99.90
3035;DHT22;1527;48.836;9.172;2022-09-09T04:17:37;17.80;99.90
3035;DHT22;1527;48.836;9.172;2022-09-09T04:20:07;17.70;99.90
3035;DHT22;1527;48.836;9.172;2022-09-09T04:22:39;17.70;99.90
3035;DHT22;1527;48.836;9.172;2022-09-09T04:25:08;17.60;99.90
3035;DHT22;1527;48.836;9.172;2022-09-09T04:27:38;17.70;99.90
3035;DHT22;1527;48.836;9.172;2022-09-09T04:30:08;17.70;99.90
3035;DHT22;1527;48.836;9.172;2022-09-09T04:32:41;17.70;99.90
3035;DHT22;1527;48.836;9.172;2022-09-09T04:35:10;17.70;99.90
3035;DHT22;1527;48.836;9.172;2022-09-09T04:37:40;17.70;99.90
3035;DHT22;1527;48.836;9.172;2022-09-09T04:40:09;17.70;99.90
3035;DHT22;1527;48.836;9.172;2022-09-09T04:42:39;17.70;99.90
3035;DHT22;1527;48.836;9.172;2022-09-09T04:45:13;17.70;99.90
3035;DHT22;1527;48.836;9.172;2022-09-09T04:47:44;17.80;99.90
3035;DHT22;1527;48.836;9.172;2022-09-09T04:50:13;17.80;99.90
3035;DHT22;1527;48.836;9.172;2022-09-09T04:52:47;17.90;99.90
3035;DHT22;1527;48.836;9.172;2022-09-09T04:55:16;17.90;99.90
3035;DHT22;1527;48.836;9.172;2022-09-09T04:57:45;17.90;99.90
3035;DHT22;1527;48.836;9.172;2022-09-09T05:00:16;18.00;99.90
3035;DHT22;1527;48.836;9.172;2022-09-09T05:02:48;17.90;99.90
3035;DHT22;1527;48.836;9.172;2022-09-09T05:05:18;17.80;99.90
3035;DHT22;1527;48.836;9.172;2022-09-09T05:07:49;17.90;99.90
3035;DHT22;1527;48.836;9.172;2022-09-09T05:10:18;17.90;99.90
3035;DHT22;1527;48.836;9.172;2022-09-09T05:12:52;17.90;99.90
3035;DHT22;1527;48.836;9.172;2022-09-09T05:15:25;17.90;99.90
3035;DHT22;1527;48.836;9.172;2022-09-09T05:17:58;17.90;99.90
3035;DHT22;1527;48.836;9.172;2022-09-09T05:20:30;17.90;99.90
3035;DHT22;1527;48.836;9.172;2022-09-09T05:22:59;17.90;99.90
3035;DHT22;1527;48.836;9.172;2022-09-09T05:25:31;17.90;99.90
3035;DHT22;1527;48.836;9.172;2022-09-09T05:28:01;17.90;99.90
3035;DHT22;1527;48.836;9.172;2022-09-09T05:30:31;17.90;99.90
3035;DHT22;1527;48.836;9.172;2022-09-09T05:33:03;17.90;99.90
3035;DHT22;1527;48.836;9.172;2022-09-09T05:35:33;17.90;99.90
3035;DHT22;1527;48.836;9.172;2022-09-09T05:38:02;18.00;99.90
3035;DHT22;1527;48.836;9.172;2022-09-09T05:40:31;18.10;99.90
3035;DHT22;1527;48.836;9.172;2022-09-09T05:43:00;18.30;99.90
3035;DHT22;1527;48.836;9.172;2022-09-09T05:45:30;18.60;99.90
3035;DHT22;1527;48.836;9.172;2022-09-09T05:48:01;18.80;99.90
3035;DHT22;1527;48.836;9.172;2022-09-09T05:50:31;19.00;99.90
3035;DHT22;1527;48.836;9.172;2022-09-09T05:53:01;19.10;99.90
3035;DHT22;1527;48.836;9.172;2022-09-09T05:55:31;19.10;99.90
3035;DHT22;1527;48.836;9.172;2022-09-09T05:58:00;19.10;99.90
3035;DHT22;1527;48.836;9.172;2022-09-09T06:00:30;19.00;99.90
3035;DHT22;1527;48.836;9.172;2022-09-09T06:03:00;18.90;99.90
3035;DHT22;1527;48.836;9.172;2022-09-09T06:05:31;18.90;99.90
3035;DHT22;1527;48.836;9.172;2022-09-09T06:08:01;18.90;99.90
3035;DHT22;1527;48.836;9.172;2022-09-09T06:10:31;18.90;99.90
3035;DHT22;1527;48.836;9.172;2022-09-09T06:13:01;18.80;99.90
3035;DHT22;1527;48.836;9.172;2022-09-09T06:15:31;18.80;99.90
3035;DHT22;1527;48.836;9.172;2022-09-09T06:18:00;18.80;99.90
3035;DHT22;1527;48.836;9.172;2022-09-09T06:20:30;18.70;99.90
3035;DHT22;1527;48.836;9.172;2022-09-09T06:22:59;18.80;99.90
3035;DHT22;1527;48.836;9.172;2022-09-09T06:25:29;18.80;99.90
3035;DHT22;1527;48.836;9.172;2022-09-09T06:27:58;18.90;99.90
3035;DHT22;1527;48.836;9.172;2022-09-09T06:30:27;18.90;99.90
3035;DHT22;1527;48.836;9.172;2022-09-09T06:32:58;19.10;99.90
3035;DHT22;1527;48.836;9.172;2022-09-09T06:35:27;19.00;99.90
3035;DHT22;1527;48.836;9.172;2022-09-09T06:37:58;19.10;99.90
3035;DHT22;1527;48.836;9.172;2022-09-09T06:40:27;19.10;99.90
3035;DHT22;1527;48.836;9.172;2022-09-09T06:42:59;19.10;99.90
3035;DHT22;1527;48.836;9.172;2022-09-09T06:45:35;19.10;99.90
3035;DHT22;1527;48.836;9.172;2022-09-09T06:48:04;19.10;99.90
3035;DHT22;1527;48.836;9.172;2022-09-09T06:50:36;19.20;99.90
3035;DHT22;1527;48.836;9.172;2022-09-09T06:53:07;19.30;99.90
3035;DHT22;1527;48.836;9.172;2022-09-09T06:55:36;19.40;99.90
3035;DHT22;1527;48.836;9.172;2022-09-09T06:58:08;19.40;99.90
3035;DHT22;1527;48.836;9.172;2022-09-09T07:00:37;19.50;99.90
3035;DHT22;1527;48.836;9.172;2022-09-09T07:03:07;19.50;99.90
3035;DHT22;1527;48.836;9.172;2022-09-09T07:05:39;19.60;99.90
3035;DHT22;1527;48.836;9.172;2022-09-09T07:08:10;19.60;99.90
3035;DHT22;1527;48.836;9.172;2022-09-09T07:10:40;19.60;99.90
3035;DHT22;1527;48.836;9.172;2022-09-09T07:13:09;19.70;99.90
3035;DHT22;1527;48.836;9.172;2022-09-09T07:15:38;19.70;99.90
3035;DHT22;1527;48.836;9.172;2022-09-09T07:18:07;19.80;99.90
3035;DHT22;1527;48.836;9.172;2022-09-09T07:20:37;19.70;99.90
3035;DHT22;1527;48.836;9.172;2022-09-09T07:23:06;19.80;99.90
3035;DHT22;1527;48.836;9.172;2022-09-09T07:25:37;19.90;99.90
3035;DHT22;1527;48.836;9.172;2022-09-09T07:28:14;19.90;99.90
3035;DHT22;1527;48.836;9.172;2022-09-09T07:30:43;20.00;99.90
3035;DHT22;1527;48.836;9.172;2022-09-09T07:33:12;20.10;99.90
3035;DHT22;1527;48.836;9.172;2022-09-09T07:35:41;20.20;99.90
3035;DHT22;1527;48.836;9.172;2022-09-09T07:38:10;20.20;99.90
3035;DHT22;1527;48.836;9.172;2022-09-09T07:40:41;20.30;99.90
3035;DHT22;1527;48.836;9.172;2022-09-09T07:43:11;20.40;99.90
3035;DHT22;1527;48.836;9.172;2022-09-09T07:45:44;20.40;99.90
3035;DHT22;1527;48.836;9.172;2022-09-09T07:48:14;20.50;99.90
3035;DHT22;1527;48.836;9.172;2022-09-09T07:50:43;20.60;99.90
3035;DHT22;1527;48.836;9.172;2022-09-09T07:53:12;20.70;99.90
3035;DHT22;1527;48.836;9.172;2022-09-09T07:55:43;20.80;99.90
3035;DHT22;1527;48.836;9.172;2022-09-09T07:58:12;20.90;99.90
3035;DHT22;1527;48.836;9.172;2022-09-09T08:00:41;21.00;99.90
3035;DHT22;1527;48.836;9.172;2022-09-09T08:03:11;21.00;99.90
3035;DHT22;1527;48.836;9.172;2022-09-09T08:05:40;21.00;99.90
3035;DHT22;1527;48.836;9.172;2022-09-09T08:08:10;21.10;99.90
3035;DHT22;1527;48.836;9.172;2022-09-09T08:10:40;21.10;99.90
3035;DHT22;1527;48.836;9.172;2022-09-09T08:13:11;21.10;99.90
3035;DHT22;1527;48.836;9.172;2022-09-09T08:15:46;21.20;99.90
3035;DHT22;1527;48.836;9.172;2022-09-09T08:18:18;21.30;99.90
3035;DHT22;1527;48.836;9.172;2022-09-09T08:20:47;21.40;99.90
3035;DHT22;1527;48.836;9.172;2022-09-09T08:23:16;21.50;99.90
3035;DHT22;1527;48.836;9.172;2022-09-09T08:25:45;21.60;99.90
3035;DHT22;1527;48.836;9.172;2022-09-09T08:28:18;21.60;99.90
3035;DHT22;1527;48.836;9.172;2022-09-09T08:30:48;21.60;99.90
3035;DHT22;1527;48.836;9.172;2022-09-09T08:33:18;21.60;99.90
3035;DHT22;1527;48.836;9.172;2022-09-09T08:35:50;21.70;99.90
3035;DHT22;1527;48.836;9.172;2022-09-09T08:38:20;21.70;99.90
3035;DHT22;1527;48.836;9.172;2022-09-09T08:40:50;21.60;99.90
3035;DHT22;1527;48.836;9.172;2022-09-09T08:43:25;21.70;99.90
3035;DHT22;1527;48.836;9.172;2022-09-09T08:46:03;21.80;99.90
3035;DHT22;1527;48.836;9.172;2022-09-09T08:48:47;21.80;99.90
3035;DHT22;1527;48.836;9.172;2022-09-09T08:51:21;21.70;99.90
3035;DHT22;1527;48.836;9.172;2022-09-09T08:53:51;21.70;99.90
3035;DHT22;1527;48.836;9.172;2022-09-09T08:56:27;21.70;99.90
3035;DHT22;1527;48.836;9.172;2022-09-09T08:59:01;21.70;99.90
3035;DHT22;1527;48.836;9.172;2022-09-09T09:01:44;21.80;99.90
3035;DHT22;1527;48.836;9.172;2022-09-09T09:04:39;21.70;99.90
3035;DHT22;1527;48.836;9.172;2022-09-09T09:07:23;21.80;99.90
3035;DHT22;1527;48.836;9.172;2022-09-09T09:10:05;21.90;99.90
3035;DHT22;1527;48.836;9.172;2022-09-09T09:13:00;22.00;99.90
3035;DHT22;1527;48.836;9.172;2022-09-09T09:15:37;22.00;99.90
3035;DHT22;1527;48.836;9.172;2022-09-09T09:18:10;22.00;99.90
3035;DHT22;1527;48.836;9.172;2022-09-09T09:20:48;22.20;99.90
3035;DHT22;1527;48.836;9.172;2022-09-09T09:23:22;22.20;99.90
3035;DHT22;1527;48.836;9.172;2022-09-09T09:25:58;22.20;99.90
3035;DHT22;1527;48.836;9.172;2022-09-09T09:28:32;22.10;99.90
3035;DHT22;1527;48.836;9.172;2022-09-09T09:31:11;22.10;99.90
3035;DHT22;1527;48.836;9.172;2022-09-09T09:33:49;22.00;99.90
3035;DHT22;1527;48.836;9.172;2022-09-09T09:36:24;22.00;99.90
3035;DHT22;1527;48.836;9.172;2022-09-09T09:39:04;22.00;99.90
3035;DHT22;1527;48.836;9.172;2022-09-09T09:41:57;22.00;99.90
3035;DHT22;1527;48.836;9.172;2022-09-09T09:44:33;21.90;99.90
3035;DHT22;1527;48.836;9.172;2022-09-09T09:47:14;21.90;99.90
3035;DHT22;1527;48.836;9.172;2022-09-09T09:49:54;21.90;99.90
3035;DHT22;1527;48.836;9.172;2022-09-09T09:52:29;21.80;99.90
3035;DHT22;1527;48.836;9.172;2022-09-09T09:55:03;21.70;99.90
3035;DHT22;1527;48.836;9.172;2022-09-09T09:57:36;21.70;99.90
3035;DHT22;1527;48.836;9.172;2022-09-09T10:00:13;21.80;99.90
3035;DHT22;1527;48.836;9.172;2022-09-09T10:02:52;21.80;99.90
3035;DHT22;1527;48.836;9.172;2022-09-09T10:05:26;21.80;99.90
3035;DHT22;1527;48.836;9.172;2022-09-09T10:08:11;21.90;99.90
3035;DHT22;1527;48.836;9.172;2022-09-09T10:11:03;22.00;99.90
3035;DHT22;1527;48.836;9.172;2022-09-09T10:13:44;22.20;99.90
3035;DHT22;1527;48.836;9.172;2022-09-09T10:16:25;22.30;99.90
3035;DHT22;1527;48.836;9.172;2022-09-09T10:19:04;22.40;99.90
3035;DHT22;1527;48.836;9.172;2022-09-09T10:21:58;22.50;99.90
3035;DHT22;1527;48.836;9.172;2022-09-09T10:24:56;22.60;99.90
3035;DHT22;1527;48.836;9.172;2022-09-09T10:27:40;22.70;99.90
3035;DHT22;1527;48.836;9.172;2022-09-09T10:30:16;22.90;99.90
3035;DHT22;1527;48.836;9.172;2022-09-09T10:32:49;22.90;99.90
3035;DHT22;1527;48.836;9.172;2022-09-09T10:35:27;23.00;99.90
3035;DHT22;1527;48.836;9.172;2022-09-09T10:38:20;23.00;99.90
3035;DHT22;1527;48.836;9.172;2022-09-09T10:41:18;23.00;99.90
3035;DHT22;1527;48.836;9.172;2022-09-09T10:44:21;23.00;99.90
3035;DHT22;1527;48.836;9.172;2022-09-09T10:47:11;23.10;99.90
3035;DHT22;1527;48.836;9.172;2022-09-09T10:52:55;23.30;99.90
3035;DHT22;1527;48.836;9.172;2022-09-09T10:55:37;23.40;99.90
3035;DHT22;1527;48.836;9.172;2022-09-09T10:58:14;23.50;99.90
3035;DHT22;1527;48.836;9.172;2022-09-09T11:00:47;23.70;99.90
3035;DHT22;1527;48.836;9.172;2022-09-09T11:03:26;23.80;99.90
3035;DHT22;1527;48.836;9.172;2022-09-09T11:06:01;23.80;99.90
3035;DHT22;1527;48.836;9.172;2022-09-09T11:08:37;23.80;99.90
3035;DHT22;1527;48.836;9.172;2022-09-09T11:11:11;23.90;99.90
3035;DHT22;1527;48.836;9.172;2022-09-09T11:13:47;23.80;99.90
3035;DHT22;1527;48.836;9.172;2022-09-09T11:16:25;23.50;99.90
3035;DHT22;1527;48.836;9.172;2022-09-09T11:18:59;23.20;99.90
3035;DHT22;1527;48.836;9.172;2022-09-09T11:21:33;22.70;99.90
3035;DHT22;1527;48.836;9.172;2022-09-09T11:24:15;22.10;99.90
3035;DHT22;1527;48.836;9.172;2022-09-09T11:26:51;21.80;99.90
3035;DHT22;1527;48.836;9.172;2022-09-09T11:33:00;21.70;99.90
3035;DHT22;1527;48.836;9.172;2022-09-09T11:35:44;21.40;99.90
3035;DHT22;1527;48.836;9.172;2022-09-09T11:38:25;21.50;99.90
3035;DHT22;1527;48.836;9.172;2022-09-09T11:40:58;21.30;99.90
3035;DHT22;1527;48.836;9.172;2022-09-09T11:43:32;21.20;99.90
3035;DHT22;1527;48.836;9.172;2022-09-09T11:46:08;21.20;99.90
3035;DHT22;1527;48.836;9.172;2022-09-09T11:48:39;21.40;99.90
3035;DHT22;1527;48.836;9.172;2022-09-09T11:51:12;21.60;99.90
3035;DHT22;1527;48.836;9.172;2022-09-09T11:53:51;21.70;99.90
3035;DHT22;1527;48.836;9.172;2022-09-09T11:56:28;21.60;99.90
3035;DHT22;1527;48.836;9.172;2022-09-09T11:59:00;21.50;99.90
3035;DHT22;1527;48.836;9.172;2022-09-09T12:01:37;21.50;99.90
3035;DHT22;1527;48.836;9.172;2022-09-09T12:04:30;21.40;99.90
3035;DHT22;1527;48.836;9.172;2022-09-09T12:07:03;21.50;99.90
3035;DHT22;1527;48.836;9.172;2022-09-09T12:09:45;21.80;99.90
3035;DHT22;1527;48.836;9.172;2022-09-09T12:12:26;21.90;99.90
3035;DHT22;1527;48.836;9.172;2022-09-09T12:15:01;22.00;99.90
3035;DHT22;1527;48.836;9.172;2022-09-09T12:18:00;22.10;99.90
3035;DHT22;1527;48.836;9.172;2022-09-09T12:20:35;22.20;99.90
3035;DHT22;1527;48.836;9.172;2022-09-09T12:23:16;22.40;99.90
3035;DHT22;1527;48.836;9.172;2022-09-09T12:26:07;22.40;99.90
3035;DHT22;1527;48.836;9.172;2022-09-09T12:28:53;22.50;99.90
3035;DHT22;1527;48.836;9.172;2022-09-09T12:31:33;22.60;99.90
3035;DHT22;1527;48.836;9.172;2022-09-09T12:34:10;22.80;99.90
3035;DHT22;1527;48.836;9.172;2022-09-09T12:36:44;22.80;99.90
3035;DHT22;1527;48.836;9.172;2022-09-09T12:39:24;22.90;99.90
3035;DHT22;1527;48.836;9.172;2022-09-09T12:41:57;22.90;99.90
3035;DHT22;1527;48.836;9.172;2022-09-09T12:44:28;22.90;99.90
3035;DHT22;1527;48.836;9.172;2022-09-09T12:46:59;23.00;99.90
3035;DHT22;1527;48.836;9.172;2022-09-09T12:49:32;23.10;99.90
3035;DHT22;1527;48.836;9.172;2022-09-09T12:52:05;23.00;99.90
3035;DHT22;1527;48.836;9.172;2022-09-09T12:54:37;22.90;99.90
3035;DHT22;1527;48.836;9.172;2022-09-09T12:57:12;22.90;99.90
3035;DHT22;1527;48.836;9.172;2022-09-09T12:59:44;22.90;99.90
3035;DHT22;1527;48.836;9.172;2022-09-09T13:02:22;22.90;99.90
3035;DHT22;1527;48.836;9.172;2022-09-09T13:04:52;22.80;99.90
3035;DHT22;1527;48.836;9.172;2022-09-09T13:07:23;22.90;99.90
3035;DHT22;1527;48.836;9.172;2022-09-09T13:09:53;23.00;99.90
3035;DHT22;1527;48.836;9.172;2022-09-09T13:12:23;23.00;99.90
3035;DHT22;1527;48.836;9.172;2022-09-09T13:14:55;23.10;99.90
3035;DHT22;1527;48.836;9.172;2022-09-09T13:17:26;23.10;99.90
3035;DHT22;1527;48.836;9.172;2022-09-09T13:19:57;23.20;99.90
3035;DHT22;1527;48.836;9.172;2022-09-09T13:22:30;23.30;99.90
3035;DHT22;1527;48.836;9.172;2022-09-09T13:25:13;23.30;99.90
3035;DHT22;1527;48.836;9.172;2022-09-09T13:27:53;23.40;99.90
3035;DHT22;1527;48.836;9.172;2022-09-09T13:30:28;23.30;99.90
3035;DHT22;1527;48.836;9.172;2022-09-09T13:33:20;23.30;99.90
3035;DHT22;1527;48.836;9.172;2022-09-09T13:35:54;23.30;99.90
3035;DHT22;1527;48.836;9.172;2022-09-09T13:38:25;23.30;99.90
3035;DHT22;1527;48.836;9.172;2022-09-09T13:40:56;23.30;99.90
3035;DHT22;1527;48.836;9.172;2022-09-09T13:43:27;23.30;99.90
3035;DHT22;1527;48.836;9.172;2022-09-09T13:46:00;23.30;99.90
3035;DHT22;1527;48.836;9.172;2022-09-09T13:48:30;23.40;99.90
3035;DHT22;1527;48.836;9.172;2022-09-09T13:51:02;23.40;99.90
3035;DHT22;1527;48.836;9.172;2022-09-09T13:53:32;23.40;99.90
3035;DHT22;1527;48.836;9.172;2022-09-09T13:56:03;23.30;99.90
3035;DHT22;1527;48.836;9.172;2022-09-09T13:58:32;23.40;99.90
3035;DHT22;1527;48.836;9.172;2022-09-09T14:01:04;23.40;99.90
3035;DHT22;1527;48.836;9.172;2022-09-09T14:03:33;23.50;99.90
3035;DHT22;1527;48.836;9.172;2022-09-09T14:06:02;23.50;99.90
3035;DHT22;1527;48.836;9.172;2022-09-09T14:08:31;23.50;99.90
3035;DHT22;1527;48.836;9.172;2022-09-09T14:11:05;23.70;99.90
3035;DHT22;1527;48.836;9.172;2022-09-09T14:13:37;23.70;99.90
3035;DHT22;1527;48.836;9.172;2022-09-09T14:16:07;23.80;99.90
3035;DHT22;1527;48.836;9.172;2022-09-09T14:18:37;23.90;99.90
3035;DHT22;1527;48.836;9.172;2022-09-09T14:21:06;23.90;99.90
3035;DHT22;1527;48.836;9.172;2022-09-09T14:23:36;24.10;99.90
3035;DHT22;1527;48.836;9.172;2022-09-09T14:26:06;24.20;99.90
3035;DHT22;1527;48.836;9.172;2022-09-09T14:28:36;24.10;99.90
3035;DHT22;1527;48.836;9.172;2022-09-09T14:31:25;24.10;99.90
3035;DHT22;1527;48.836;9.172;2022-09-09T14:33:54;24.10;99.90
3035;DHT22;1527;48.836;9.172;2022-09-09T14:36:23;24.00;99.90
3035;DHT22;1527;48.836;9.172;2022-09-09T14:38:53;23.80;99.90
3035;DHT22;1527;48.836;9.172;2022-09-09T14:41:22;23.80;99.90
3035;DHT22;1527;48.836;9.172;2022-09-09T14:44:00;23.90;99.90
3035;DHT22;1527;48.836;9.172;2022-09-09T14:46:33;23.80;99.90
3035;DHT22;1527;48.836;9.172;2022-09-09T14:49:03;23.80;99.90
3035;DHT22;1527;48.836;9.172;2022-09-09T14:51:32;23.80;99.90
3035;DHT22;1527;48.836;9.172;2022-09-09T14:54:01;23.80;99.90
3035;DHT22;1527;48.836;9.172;2022-09-09T14:56:32;23.60;99.90
3035;DHT22;1527;48.836;9.172;2022-09-09T14:59:03;23.70;99.90
3035;DHT22;1527;48.836;9.172;2022-09-09T15:01:34;23.50;99.90
3035;DHT22;1527;48.836;9.172;2022-09-09T15:04:05;23.60;99.90
3035;DHT22;1527;48.836;9.172;2022-09-09T15:06:35;23.70;99.90
3035;DHT22;1527;48.836;9.172;2022-09-09T15:09:05;23.70;99.90
3035;DHT22;1527;48.836;9.172;2022-09-09T15:11:36;23.80;99.90
3035;DHT22;1527;48.836;9.172;2022-09-09T15:14:09;23.80;99.90
3035;DHT22;1527;48.836;9.172;2022-09-09T15:16:41;23.70;99.90
3035;DHT22;1527;48.836;9.172;2022-09-09T15:19:12;23.80;99.90
3035;DHT22;1527;48.836;9.172;2022-09-09T15:21:43;23.70;99.90
3035;DHT22;1527;48.836;9.172;2022-09-09T15:24:12;23.60;99.90
3035;DHT22;1527;48.836;9.172;2022-09-09T15:26:41;23.50;99.90
3035;DHT22;1527;48.836;9.172;2022-09-09T15:29:10;23.60;99.90
3035;DHT22;1527;48.836;9.172;2022-09-09T15:31:41;23.50;99.90
3035;DHT22;1527;48.836;9.172;2022-09-09T15:34:10;23.50;99.90
3035;DHT22;1527;48.836;9.172;2022-09-09T15:36:44;23.40;99.90
3035;DHT22;1527;48.836;9.172;2022-09-09T15:39:17;23.40;99.90
3035;DHT22;1527;48.836;9.172;2022-09-09T15:41:50;23.30;99.90
3035;DHT22;1527;48.836;9.172;2022-09-09T15:44:19;23.40;99.90
3035;DHT22;1527;48.836;9.172;2022-09-09T15:46:51;23.50;99.90
3035;DHT22;1527;48.836;9.172;2022-09-09T15:49:25;23.60;99.90
3035;DHT22;1527;48.836;9.172;2022-09-09T15:51:56;23.70;99.90
3035;DHT22;1527;48.836;9.172;2022-09-09T15:54:32;23.70;99.90
3035;DHT22;1527;48.836;9.172;2022-09-09T15:57:03;23.70;99.90
3035;DHT22;1527;48.836;9.172;2022-09-09T15:59:34;23.60;99.90
3035;DHT22;1527;48.836;9.172;2022-09-09T16:02:04;23.60;99.90
3035;DHT22;1527;48.836;9.172;2022-09-09T16:04:34;23.50;99.90
3035;DHT22;1527;48.836;9.172;2022-09-09T16:07:04;23.50;99.90
3035;DHT22;1527;48.836;9.172;2022-09-09T16:09:34;23.60;99.90
3035;DHT22;1527;48.836;9.172;2022-09-09T16:12:04;23.50;99.90
3035;DHT22;1527;48.836;9.172;2022-09-09T16:14:37;23.50;99.90
3035;DHT22;1527;48.836;9.172;2022-09-09T16:17:08;23.50;99.90
3035;DHT22;1527;48.836;9.172;2022-09-09T16:19:37;23.40;99.90
3035;DHT22;1527;48.836;9.172;2022-09-09T16:22:07;23.40;99.90
3035;DHT22;1527;48.836;9.172;2022-09-09T16:24:43;23.30;99.90
3035;DHT22;1527;48.836;9.172;2022-09-09T16:27:12;23.20;99.90
3035;DHT22;1527;48.836;9.172;2022-09-09T16:29:42;22.80;99.90
3035;DHT22;1527;48.836;9.172;2022-09-09T16:32:12;22.40;99.90
3035;DHT22;1527;48.836;9.172;2022-09-09T16:34:41;22.00;99.90
3035;DHT22;1527;48.836;9.172;2022-09-09T16:37:11;21.80;99.90
3035;DHT22;1527;48.836;9.172;2022-09-09T16:39:42;21.60;99.90
3035;DHT22;1527;48.836;9.172;2022-09-09T16:42:13;21.40;99.90
3035;DHT22;1527;48.836;9.172;2022-09-09T16:44:45;21.20;99.90
3035;DHT22;1527;48.836;9.172;2022-09-09T16:47:15;21.10;99.90
3035;DHT22;1527;48.836;9.172;2022-09-09T16:49:45;21.10;99.90
3035;DHT22;1527;48.836;9.172;2022-09-09T16:52:14;21.00;99.90
3035;DHT22;1527;48.836;9.172;2022-09-09T16:54:47;21.10;99.90